Portada
METAR-TAF:

METAR-TAF

Aeroports :

Aeroport d'Ouagadougou

Ouagadougou, Burkina Faso

latitud: 12-21N, longitud: 001-31W, altitud: 316 m

Observació

L'informe es va fer fa 51 minuts, a les 02:00 UTC
Vent 2 kt del Sud-Oest
Temperatura 27°C
Humitat 89%
Pressió 1012 hPa
Visibilitat 10 km o més
sense núvols per sota de 1500 mi sense presència de cumulonimbus.

METAR: DFFD 200200Z 22002KT CAVOK 27/25 Q1012 NOSIG

Hora: 02:51 (02:51 UTC)

Pronòstic

L'informe es va fer fa 3 hores i 51 minuts, a les 23:00 UTC
Pronòstic vàlid del 20 a les 00 UTC al 21 a les 06 UTC
Vent 8 kt del Oest
Visibilitat 10 km o més
Núvols disperses a una alçada de 2000 ft
Temporalment
l' 20 a les 10 UTC al 20 a les 24 UTC
Visibilitat: 4000 m
Núvols disperses a una alçada de 2000 ft
Escasses núvols a una alçada de 3600 ft, Cumulonimbus.
tempesta, pluja

TAF: DFFD 192300Z 2000/2106 26008KT 9999 SCT020 TEMPO 2010/2024 4000 TSRA SCT020 FEW036CB

Observacions i pronòstics meteorològics de més de 4000 aeroports (METAR i TAF).

Les estacions disponibles són els punts grocs i vermells al mapa.

Posi el ratolí al punt desitjat per veure el nom de l'estació.

Feu clic per veure les observacions i els pronòstics meteorològics.

Per canviar el mapa: feu clic els botons verds amb una creu de color negre per apropar; al botó verd amb un guió per allunyar la imatge; o en les fletxes verdes per a mapes adjacents.


METAR-TAF: